Time,TemperatureF,DewpointF,PressureIn,WindDirection,WindDirectionDegrees,WindSpeedMPH,WindSpeedGustMPH,Humidity,HourlyPrecipIn,Conditions,Clouds,dailyrainin,SoftwareType,DateUTC
2014-02-28 00:01:00,8.5,-10.8,30.07,WNW,295,1.0,2.0,40,0.00,,,0.00,WeatherCatV1.23B16,2014-02-28 05:01:00,
2014-02-28 00:06:00,8.4,-10.9,30.07,SW,221,0.0,1.0,40,0.00,,,0.00,WeatherCatV1.23B16,2014-02-28 05:06:00,
2014-02-28 00:11:00,8.3,-11.0,30.08,North,352,0.0,5.0,40,0.00,,,0.00,WeatherCatV1.23B16,2014-02-28 05:11:00,
2014-02-28 00:16:00,8.2,-11.1,30.08,SSE,149,1.0,2.0,40,0.00,,,0.00,WeatherCatV1.23B16,2014-02-28 05:16:00,
2014-02-28 00:21:00,8.2,-10.6,30.09,SW,221,1.0,1.0,41,0.00,,,0.00,WeatherCatV1.23B16,2014-02-28 05:21:00,
2014-02-28 00:26:00,8.1,-10.2,30.09,NNE,33,1.0,1.0,42,0.00,,,0.00,WeatherCatV1.23B16,2014-02-28 05:26:00,
2014-02-28 00:31:00,7.9,-10.9,30.10,NNW,334,3.0,3.0,41,0.00,,,0.00,WeatherCatV1.23B16,2014-02-28 05:31:00,
2014-02-28 00:36:00,7.8,-10.5,30.10,NW,321,0.0,2.0,42,0.00,,,0.00,WeatherCatV1.23B16,2014-02-28 05:36:00,
2014-02-28 00:41:00,7.8,-10.9,30.11,NNW,335,1.0,3.0,41,0.00,,,0.00,WeatherCatV1.23B16,2014-02-28 05:41:00,
2014-02-28 00:46:00,7.7,-11.0,30.11,NE,45,0.0,3.0,41,0.00,,,0.00,WeatherCatV1.23B16,2014-02-28 05:46:00,
2014-02-28 00:51:00,7.6,-10.6,30.11,North,6,0.0,0.0,42,0.00,,,0.00,WeatherCatV1.23B16,2014-02-28 05:51:00,
2014-02-28 00:56:00,7.4,-10.8,30.12,NW,313,0.0,3.0,42,0.00,,,0.00,WeatherCatV1.23B16,2014-02-28 05:56:00,
2014-02-28 01:01:00,7.4,-10.4,30.12,North,357,1.0,2.0,43,0.00,,,0.00,WeatherCatV1.23B16,2014-02-28 06:01:00,
2014-02-28 01:06:00,7.3,-10.4,30.12,NNW,341,0.0,1.0,43,0.00,,,0.00,WeatherCatV1.23B16,2014-02-28 06:06:00,
2014-02-28 01:11:00,7.3,-10.4,30.12,NNW,345,6.0,6.0,43,0.00,,,0.00,WeatherCatV1.23B16,2014-02-28 06:11:00,
2014-02-28 01:16:00,7.3,-10.0,30.12,NNE,14,0.0,1.0,44,0.00,,,0.00,WeatherCatV1.23B16,2014-02-28 06:16:00,
2014-02-28 01:21:00,7.1,-10.2,30.12,ENE,71,0.0,2.0,44,0.00,,,0.00,WeatherCatV1.23B16,2014-02-28 06:21:00,
2014-02-28 01:26:00,7.0,-10.3,30.13,North,352,0.0,1.0,44,0.00,,,0.00,WeatherCatV1.23B16,2014-02-28 06:26:00,
2014-02-28 01:31:00,6.8,-9.6,30.13,East,83,0.0,1.0,46,0.00,,,0.00,WeatherCatV1.23B16,2014-02-28 06:31:00,
2014-02-28 01:36:00,6.7,-9.6,30.13,NNE,20,1.0,1.0,46,0.00,,,0.00,WeatherCatV1.23B16,2014-02-28 06:36:00,
2014-02-28 01:41:00,6.7,-10.1,30.13,West,269,1.0,1.0,45,0.00,,,0.00,WeatherCatV1.23B16,2014-02-28 06:41:00,
2014-02-28 01:46:00,6.6,-10.2,30.14,North,3,1.0,3.0,45,0.00,,,0.00,WeatherCatV1.23B16,2014-02-28 06:46:00,
2014-02-28 01:51:00,6.6,-9.7,30.14,SE,143,0.0,1.0,46,0.00,,,0.00,WeatherCatV1.23B16,2014-02-28 06:51:00,
2014-02-28 01:56:00,6.4,-9.5,30.14,SSW,207,0.0,2.0,47,0.00,,,0.00,WeatherCatV1.23B16,2014-02-28 06:56:00,
2014-02-28 02:01:00,6.3,-10.0,30.14,WNW,287,0.0,2.0,46,0.00,,,0.00,WeatherCatV1.23B16,2014-02-28 07:01:00,
2014-02-28 02:06:00,6.3,-9.6,30.14,SSW,212,1.0,1.0,47,0.00,,,0.00,WeatherCatV1.23B16,2014-02-28 07:06:00,
2014-02-28 02:11:00,6.2,-10.1,30.14,East,91,0.0,1.0,46,0.00,,,0.00,WeatherCatV1.23B16,2014-02-28 07:11:00,
2014-02-28 02:16:00,6.1,-9.8,30.14,NNW,333,0.0,3.0,47,0.00,,,0.00,WeatherCatV1.23B16,2014-02-28 07:16:00,
2014-02-28 02:21:00,6.1,-9.8,30.14,NW,311,1.0,2.0,47,0.00,,,0.00,WeatherCatV1.23B16,2014-02-28 07:21:00,
2014-02-28 02:26:00,6.0,-9.4,30.14,NW,326,0.0,1.0,48,0.00,,,0.00,WeatherCatV1.23B16,2014-02-28 07:26:00,
2014-02-28 02:31:00,6.0,-9.4,30.14,SW,217,0.0,2.0,48,0.00,,,0.00,WeatherCatV1.23B16,2014-02-28 07:31:00,
2014-02-28 02:36:00,5.9,-9.5,30.14,WSW,250,0.0,1.0,48,0.00,,,0.00,WeatherCatV1.23B16,2014-02-28 07:36:00,
2014-02-28 02:41:00,5.8,-9.6,30.14,SSE,164,0.0,3.0,48,0.00,,,0.00,WeatherCatV1.23B16,2014-02-28 07:41:00,
2014-02-28 02:46:00,5.7,-9.7,30.15,WSW,251,0.0,1.0,48,0.00,,,0.00,WeatherCatV1.23B16,2014-02-28 07:46:00,
2014-02-28 02:51:00,5.6,-9.4,30.16,ESE,115,1.0,1.0,49,0.00,,,0.00,WeatherCatV1.23B16,2014-02-28 07:51:00,
2014-02-28 02:56:00,5.6,-9.4,30.16,East,86,0.0,1.0,49,0.00,,,0.00,WeatherCatV1.23B16,2014-02-28 07:56:00,
2014-02-28 03:01:00,5.5,-9.5,30.16,WSW,250,0.0,3.0,49,0.00,,,0.00,WeatherCatV1.23B16,2014-02-28 08:01:00,
2014-02-28 03:06:00,5.5,-9.5,30.16,NNE,32,0.0,1.0,49,0.00,,,0.00,WeatherCatV1.23B16,2014-02-28 08:06:00,
2014-02-28 03:11:00,5.4,-9.6,30.16,North,4,1.0,1.0,49,0.00,,,0.00,WeatherCatV1.23B16,2014-02-28 08:11:00,
2014-02-28 03:16:00,5.3,-9.7,30.17,ESE,103,0.0,1.0,49,0.00,,,0.00,WeatherCatV1.23B16,2014-02-28 08:16:00,
2014-02-28 03:21:00,5.2,-9.8,30.17,ENE,77,0.0,1.0,49,0.00,,,0.00,WeatherCatV1.23B16,2014-02-28 08:21:00,
2014-02-28 03:26:00,5.1,-9.8,30.17,WSW,257,1.0,1.0,49,0.00,,,0.00,WeatherCatV1.23B16,2014-02-28 08:26:00,
2014-02-28 03:31:00,5.1,-9.4,30.18,West,281,0.0,1.0,50,0.00,,,0.00,WeatherCatV1.23B16,2014-02-28 08:31:00,
2014-02-28 03:36:00,5.0,-9.5,30.18,NNW,328,0.0,1.0,50,0.00,,,0.00,WeatherCatV1.23B16,2014-02-28 08:36:00,
2014-02-28 03:41:00,5.1,-9.8,30.18,North,359,0.0,1.0,49,0.00,,,0.00,WeatherCatV1.23B16,2014-02-28 08:41:00,
2014-02-28 03:46:00,5.1,-9.8,30.18,WSW,243,0.0,2.0,49,0.00,,,0.00,WeatherCatV1.23B16,2014-02-28 08:46:00,
2014-02-28 03:51:00,5.0,-9.5,30.19,NW,325,0.0,0.0,50,0.00,,,0.00,WeatherCatV1.23B16,2014-02-28 08:51:00,
2014-02-28 03:56:00,4.8,-9.7,30.19,NNW,328,0.0,1.0,50,0.00,,,0.00,WeatherCatV1.23B16,2014-02-28 08:56:00,
2014-02-28 04:01:00,4.8,-9.7,30.20,West,274,0.0,2.0,50,0.00,,,0.00,WeatherCatV1.23B16,2014-02-28 09:01:00,
2014-02-28 04:06:00,4.8,-9.3,30.20,SSE,167,0.0,1.0,51,0.00,,,0.00,WeatherCatV1.23B16,2014-02-28 09:06:00,
2014-02-28 04:11:00,4.7,-9.4,30.20,WSW,253,0.0,0.0,51,0.00,,,0.00,WeatherCatV1.23B16,2014-02-28 09:11:00,
2014-02-28 04:16:00,4.6,-9.5,30.21,NNE,13,0.0,0.0,51,0.00,,,0.00,WeatherCatV1.23B16,2014-02-28 09:16:00,
2014-02-28 04:21:00,4.3,-9.8,30.20,SSW,209,0.0,0.0,51,0.00,,,0.00,WeatherCatV1.23B16,2014-02-28 09:21:00,
2014-02-28 04:26:00,4.3,-9.4,30.21,West,259,0.0,0.0,52,0.00,,,0.00,WeatherCatV1.23B16,2014-02-28 09:26:00,
2014-02-28 04:31:00,4.3,-9.4,30.22,East,84,0.0,0.0,52,0.00,,,0.00,WeatherCatV1.23B16,2014-02-28 09:31:00,
2014-02-28 04:36:00,4.3,-9.0,30.22,NNE,15,0.0,1.0,53,0.00,,,0.00,WeatherCatV1.23B16,2014-02-28 09:36:00,
2014-02-28 04:41:00,4.3,-9.0,30.22,WNW,302,0.0,1.0,53,0.00,,,0.00,WeatherCatV1.23B16,2014-02-28 09:41:00,
2014-02-28 04:46:00,4.1,-8.8,30.22,NNW,336,0.0,2.0,54,0.00,,,0.00,WeatherCatV1.23B16,2014-02-28 09:46:00,
2014-02-28 04:51:00,4.0,-8.5,30.22,NW,326,1.0,1.0,55,0.00,,,0.00,WeatherCatV1.23B16,2014-02-28 09:51:00,
2014-02-28 04:56:00,4.0,-8.9,30.23,WNW,290,0.0,1.0,54,0.00,,,0.00,WeatherCatV1.23B16,2014-02-28 09:56:00,
2014-02-28 05:01:00,4.1,-8.8,30.23,North,357,0.0,0.0,54,0.00,,,0.00,WeatherCatV1.23B16,2014-02-28 10:01:00,
2014-02-28 05:06:00,4.0,-8.5,30.23,NW,319,0.0,0.0,55,0.00,,,0.00,WeatherCatV1.23B16,2014-02-28 10:06:00,
2014-02-28 05:11:00,3.9,-9.0,30.24,North,351,0.0,1.0,54,0.00,,,0.00,WeatherCatV1.23B16,2014-02-28 10:11:00,
2014-02-28 05:16:00,3.9,-8.6,30.24,NNW,335,0.0,0.0,55,0.00,,,0.00,WeatherCatV1.23B16,2014-02-28 10:16:00,
2014-02-28 05:21:00,3.9,-8.6,30.24,North,349,0.0,1.0,55,0.00,,,0.00,WeatherCatV1.23B16,2014-02-28 10:21:00,
2014-02-28 05:26:00,3.8,-8.7,30.24,North,357,1.0,2.0,55,0.00,,,0.00,WeatherCatV1.23B16,2014-02-28 10:26:00,
2014-02-28 05:31:00,3.8,-8.7,30.25,NNW,330,0.0,1.0,55,0.00,,,0.00,WeatherCatV1.23B16,2014-02-28 10:31:00,
2014-02-28 05:36:00,3.8,-8.7,30.25,NW,323,0.0,0.0,55,0.00,,,0.00,WeatherCatV1.23B16,2014-02-28 10:36:00,
2014-02-28 05:41:00,3.7,-8.4,30.25,North,3,0.0,0.0,56,0.00,,,0.00,WeatherCatV1.23B16,2014-02-28 10:41:00,
2014-02-28 05:46:00,3.5,-9.0,30.25,North,3,0.0,0.0,55,0.00,,,0.00,WeatherCatV1.23B16,2014-02-28 10:46:00,
2014-02-28 05:51:00,3.3,-8.8,30.26,North,3,0.0,0.0,56,0.00,,,0.00,WeatherCatV1.23B16,2014-02-28 10:51:00,
2014-02-28 05:56:00,3.1,-9.0,30.26,SE,133,0.0,0.0,56,0.00,,,0.00,WeatherCatV1.23B16,2014-02-28 10:56:00,
2014-02-28 06:02:00,2.9,-8.8,30.26,SE,133,0.0,0.0,57,0.00,,,0.00,WeatherCatV1.23B16,2014-02-28 11:02:00,
2014-02-28 06:07:00,2.8,-8.9,30.27,SE,133,0.0,0.0,57,0.00,,,0.00,WeatherCatV1.23B16,2014-02-28 11:07:00,
2014-02-28 06:12:00,2.5,-8.9,30.27,SE,133,0.0,0.0,58,0.00,,,0.00,WeatherCatV1.23B16,2014-02-28 11:12:00,
2014-02-28 06:17:00,2.3,-8.7,30.27,SE,133,0.0,0.0,59,0.00,,,0.00,WeatherCatV1.23B16,2014-02-28 11:17:00,
2014-02-28 06:22:00,2.0,-8.6,30.27,SE,133,0.0,0.0,60,0.00,,,0.00,WeatherCatV1.23B16,2014-02-28 11:22:00,
2014-02-28 06:27:00,1.8,-8.8,30.28,SE,133,0.0,0.0,60,0.00,,,0.00,WeatherCatV1.23B16,2014-02-28 11:27:00,
2014-02-28 06:32:00,1.5,-8.8,30.28,SE,133,0.0,0.0,61,0.00,,,0.00,WeatherCatV1.23B16,2014-02-28 11:32:00,
2014-02-28 06:37:00,1.4,-8.9,30.28,SE,133,0.0,0.0,61,0.00,,,0.00,WeatherCatV1.23B16,2014-02-28 11:37:00,
2014-02-28 06:42:00,1.4,-8.9,30.29,SE,133,0.0,0.0,61,0.00,,,0.00,WeatherCatV1.23B16,2014-02-28 11:42:00,
2014-02-28 06:47:00,1.4,-8.9,30.29,SE,133,0.0,0.0,61,0.00,,,0.00,WeatherCatV1.23B16,2014-02-28 11:47:00,
2014-02-28 06:52:00,1.5,-8.5,30.29,SE,133,0.0,1.0,62,0.00,,,0.00,WeatherCatV1.23B16,2014-02-28 11:52:00,
2014-02-28 06:57:00,1.5,-8.8,30.30,SE,133,0.0,0.0,61,0.00,,,0.00,WeatherCatV1.23B16,2014-02-28 11:57:00,
2014-02-28 07:02:00,1.4,-8.9,30.30,SE,133,0.0,0.0,61,0.00,,,0.00,WeatherCatV1.23B16,2014-02-28 12:02:00,
2014-02-28 07:07:00,1.4,-8.6,30.31,SE,133,0.0,0.0,62,0.00,,,0.00,WeatherCatV1.23B16,2014-02-28 12:07:00,
2014-02-28 07:12:00,1.5,-8.5,30.31,SE,133,0.0,0.0,62,0.00,,,0.00,WeatherCatV1.23B16,2014-02-28 12:12:00,
2014-02-28 07:17:00,1.6,-8.4,30.31,SE,133,0.0,0.0,62,0.00,,,0.00,WeatherCatV1.23B16,2014-02-28 12:17:00,
2014-02-28 07:22:00,1.9,-8.1,30.32,SE,134,0.0,1.0,62,0.00,,,0.00,WeatherCatV1.23B16,2014-02-28 12:22:00,
2014-02-28 07:27:00,2.4,-7.3,30.32,SSW,209,0.0,1.0,63,0.00,,,0.00,WeatherCatV1.23B16,2014-02-28 12:27:00,
2014-02-28 07:32:00,3.2,-6.8,30.32,SE,131,0.0,1.0,62,0.00,,,0.00,WeatherCatV1.23B16,2014-02-28 12:32:00,
2014-02-28 07:37:00,4.0,-6.8,30.32,WNW,293,0.0,0.0,60,0.00,,,0.00,WeatherCatV1.23B16,2014-02-28 12:37:00,
2014-02-28 07:42:00,4.8,-6.7,30.33,WSW,245,1.0,1.0,58,0.00,,,0.00,WeatherCatV1.23B16,2014-02-28 12:42:00,
2014-02-28 07:47:00,5.4,-6.5,30.33,NNW,344,1.0,1.0,57,0.00,,,0.00,WeatherCatV1.23B16,2014-02-28 12:47:00,
2014-02-28 07:52:00,5.8,-6.1,30.33,SSW,201,3.0,6.0,57,0.00,,,0.00,WeatherCatV1.23B16,2014-02-28 12:52:00,
2014-02-28 07:57:00,6.1,-6.2,30.33,NNW,328,0.0,2.0,56,0.00,,,0.00,WeatherCatV1.23B16,2014-02-28 12:57:00,
2014-02-28 08:02:00,6.5,-6.2,30.34,NNW,333,1.0,6.0,55,0.00,,,0.00,WeatherCatV1.23B16,2014-02-28 13:02:00,
2014-02-28 08:07:00,6.7,-6.0,30.34,NW,316,0.0,2.0,55,0.00,,,0.00,WeatherCatV1.23B16,2014-02-28 13:07:00,
2014-02-28 08:12:00,7.1,-6.0,30.34,NW,318,0.0,0.0,54,0.00,,,0.00,WeatherCatV1.23B16,2014-02-28 13:12:00,
2014-02-28 08:17:00,7.4,-6.1,30.35,West,274,1.0,3.0,53,0.00,,,0.00,WeatherCatV1.23B16,2014-02-28 13:17:00,
2014-02-28 08:22:00,7.6,-5.5,30.35,NW,326,1.0,3.0,54,0.00,,,0.00,WeatherCatV1.23B16,2014-02-28 13:22:00,
2014-02-28 08:27:00,7.9,-5.6,30.35,NNW,344,4.0,4.0,53,0.00,,,0.00,WeatherCatV1.23B16,2014-02-28 13:27:00,
2014-02-28 08:32:00,8.1,-5.8,30.35,NNE,17,0.0,2.0,52,0.00,,,0.00,WeatherCatV1.23B16,2014-02-28 13:32:00,
2014-02-28 08:37:00,8.4,-5.6,30.36,NNW,333,0.0,4.0,52,0.00,,,0.00,WeatherCatV1.23B16,2014-02-28 13:37:00,
2014-02-28 08:42:00,8.8,-5.2,30.36,SW,224,0.0,2.0,52,0.00,,,0.00,WeatherCatV1.23B16,2014-02-28 13:42:00,
2014-02-28 08:47:00,9.3,-5.1,30.36,NNW,347,1.0,2.0,51,0.00,,,0.00,WeatherCatV1.23B16,2014-02-28 13:47:00,
2014-02-28 08:52:00,9.6,-5.3,30.36,North,357,3.0,3.0,50,0.00,,,0.00,WeatherCatV1.23B16,2014-02-28 13:52:00,
2014-02-28 08:57:00,9.6,-5.3,30.36,NNW,331,1.0,1.0,50,0.00,,,0.00,WeatherCatV1.23B16,2014-02-28 13:57:00,
2014-02-28 09:02:00,10.0,-4.9,30.37,NNW,347,3.0,5.0,50,0.00,,,0.00,WeatherCatV1.23B16,2014-02-28 14:02:00,
2014-02-28 09:07:00,10.0,-5.3,30.37,NW,305,1.0,5.0,49,0.00,,,0.00,WeatherCatV1.23B16,2014-02-28 14:07:00,
2014-02-28 09:12:00,10.2,-4.7,30.37,North,354,1.0,5.0,50,0.00,,,0.00,WeatherCatV1.23B16,2014-02-28 14:12:00,
2014-02-28 09:17:00,10.3,-4.6,30.37,WSW,250,0.0,2.0,50,0.00,,,0.00,WeatherCatV1.23B16,2014-02-28 14:17:00,
2014-02-28 09:22:00,10.4,-4.9,30.37,NNE,20,1.0,4.0,49,0.00,,,0.00,WeatherCatV1.23B16,2014-02-28 14:22:00,
2014-02-28 09:27:00,10.8,-4.1,30.38,NE,44,1.0,2.0,50,0.00,,,0.00,WeatherCatV1.23B16,2014-02-28 14:27:00,
2014-02-28 09:32:00,10.9,-4.9,30.38,NNW,338,1.0,2.0,48,0.00,,,0.00,WeatherCatV1.23B16,2014-02-28 14:32:00,
2014-02-28 09:37:00,11.2,-4.6,30.38,SW,234,2.0,3.0,48,0.00,,,0.00,WeatherCatV1.23B16,2014-02-28 14:37:00,
2014-02-28 09:42:00,11.5,-4.3,30.38,SW,231,0.0,1.0,48,0.00,,,0.00,WeatherCatV1.23B16,2014-02-28 14:42:00,
2014-02-28 09:47:00,11.8,-4.5,30.39,NNW,337,6.0,7.0,47,0.00,,,0.00,WeatherCatV1.23B16,2014-02-28 14:47:00,
2014-02-28 09:52:00,11.7,-4.6,30.39,NNW,341,4.0,5.0,47,0.00,,,0.00,WeatherCatV1.23B16,2014-02-28 14:52:00,
2014-02-28 09:57:00,11.5,-4.8,30.39,North,351,2.0,2.0,47,0.00,,,0.00,WeatherCatV1.23B16,2014-02-28 14:57:00,
2014-02-28 10:02:00,11.9,-4.8,30.39,NNW,342,3.0,7.0,46,0.00,,,0.00,WeatherCatV1.23B16,2014-02-28 15:02:00,
2014-02-28 10:07:00,11.9,-5.3,30.40,WNW,289,2.0,9.0,45,0.00,,,0.00,WeatherCatV1.23B16,2014-02-28 15:07:00,
2014-02-28 10:12:00,12.0,-4.8,30.40,WSW,254,2.0,3.0,46,0.00,,,0.00,WeatherCatV1.23B16,2014-02-28 15:12:00,
2014-02-28 10:17:00,12.3,-4.5,30.40,South,191,6.0,8.0,46,0.00,,,0.00,WeatherCatV1.23B16,2014-02-28 15:17:00,
2014-02-28 10:22:00,12.9,-4.9,30.40,NNW,332,1.0,2.0,44,0.00,,,0.00,WeatherCatV1.23B16,2014-02-28 15:22:00,
2014-02-28 10:27:00,13.5,-3.8,30.40,SSW,208,0.0,1.0,45,0.00,,,0.00,WeatherCatV1.23B16,2014-02-28 15:27:00,
2014-02-28 10:32:00,13.9,-5.4,30.40,NNW,334,0.0,3.0,41,0.00,,,0.00,WeatherCatV1.23B16,2014-02-28 15:32:00,
2014-02-28 10:39:00,14.1,-5.2,30.40,NNW,342,3.0,3.0,41,0.00,,,0.00,WeatherCatV1.23B16,2014-02-28 15:39:00,
2014-02-28 10:44:00,14.4,-4.4,30.40,NE,44,1.0,3.0,42,0.00,,,0.00,WeatherCatV1.23B16,2014-02-28 15:44:00,
2014-02-28 10:49:00,14.5,-4.9,30.41,ESE,118,0.0,5.0,41,0.00,,,0.00,WeatherCatV1.23B16,2014-02-28 15:49:00,
2014-02-28 10:54:00,14.5,-4.9,30.40,WNW,295,1.0,5.0,41,0.00,,,0.00,WeatherCatV1.23B16,2014-02-28 15:54:00,
2014-02-28 10:59:00,14.5,-4.4,30.40,NW,326,1.0,3.0,42,0.00,,,0.00,WeatherCatV1.23B16,2014-02-28 15:59:00,
2014-02-28 11:04:00,15.0,-4.4,30.40,NNE,30,0.0,4.0,41,0.00,,,0.00,WeatherCatV1.23B16,2014-02-28 16:04:00,
2014-02-28 11:09:00,15.6,-4.4,30.40,NNW,335,0.0,3.0,40,0.00,,,0.00,WeatherCatV1.23B16,2014-02-28 16:09:00,
2014-02-28 11:14:00,15.8,-3.7,30.40,WSW,249,0.0,4.0,41,0.00,,,0.00,WeatherCatV1.23B16,2014-02-28 16:14:00,
2014-02-28 11:19:00,16.1,-2.9,30.40,SSE,165,0.0,0.0,42,0.00,,,0.00,WeatherCatV1.23B16,2014-02-28 16:19:00,
2014-02-28 11:24:00,16.0,-3.0,30.40,NNE,30,3.0,3.0,42,0.00,,,0.00,WeatherCatV1.23B16,2014-02-28 16:24:00,
2014-02-28 11:29:00,16.2,-3.3,30.40,WSW,248,0.0,2.0,41,0.00,,,0.00,WeatherCatV1.23B16,2014-02-28 16:29:00,
2014-02-28 11:34:00,16.1,-5.0,30.40,South,176,1.0,2.0,38,0.00,,,0.00,WeatherCatV1.23B16,2014-02-28 16:34:00,
2014-02-28 11:39:00,16.3,-4.8,30.40,WSW,251,1.0,4.0,38,0.00,,,0.00,WeatherCatV1.23B16,2014-02-28 16:39:00,
2014-02-28 11:45:00,16.2,-5.4,30.40,NNE,27,2.0,4.0,37,0.00,,,0.00,WeatherCatV1.23B16,2014-02-28 16:45:00,
2014-02-28 11:50:00,16.3,-4.8,30.40,North,1,0.0,2.0,38,0.00,,,0.00,WeatherCatV1.23B16,2014-02-28 16:50:00,
2014-02-28 11:55:00,16.6,-3.0,30.40,West,273,0.0,1.0,41,0.00,,,0.00,WeatherCatV1.23B16,2014-02-28 16:55:00,
2014-02-28 12:00:00,17.1,-4.1,30.40,ESE,123,4.0,5.0,38,0.00,,,0.00,WeatherCatV1.23B16,2014-02-28 17:00:00,
2014-02-28 12:05:00,17.0,-4.7,30.39,NE,51,1.0,3.0,37,0.00,,,0.00,WeatherCatV1.23B16,2014-02-28 17:05:00,
2014-02-28 12:10:00,17.4,-2.8,30.40,WNW,293,0.0,4.0,40,0.00,,,0.00,WeatherCatV1.23B16,2014-02-28 17:10:00,
2014-02-28 12:15:00,17.0,-4.7,30.40,NNW,340,5.0,5.0,37,0.00,,,0.00,WeatherCatV1.23B16,2014-02-28 17:15:00,
2014-02-28 12:20:00,16.7,-5.0,30.40,WNW,290,0.0,3.0,37,0.00,,,0.00,WeatherCatV1.23B16,2014-02-28 17:20:00,
2014-02-28 12:25:00,16.8,-3.8,30.39,WNW,301,0.0,1.0,39,0.00,,,0.00,WeatherCatV1.23B16,2014-02-28 17:25:00,
2014-02-28 12:30:00,17.1,-4.1,30.39,NW,310,0.0,1.0,38,0.00,,,0.00,WeatherCatV1.23B16,2014-02-28 17:30:00,
2014-02-28 12:35:00,18.1,-2.6,30.39,NW,325,0.0,2.0,39,0.00,,,0.00,WeatherCatV1.23B16,2014-02-28 17:35:00,
2014-02-28 12:40:00,18.2,-3.1,30.38,WSW,253,1.0,2.0,38,0.00,,,0.00,WeatherCatV1.23B16,2014-02-28 17:40:00,
2014-02-28 12:45:00,18.7,-3.2,30.38,SSW,212,1.0,1.0,37,0.00,,,0.00,WeatherCatV1.23B16,2014-02-28 17:45:00,
2014-02-28 12:50:00,18.8,-2.6,30.38,North,3,2.0,3.0,38,0.00,,,0.00,WeatherCatV1.23B16,2014-02-28 17:50:00,
2014-02-28 12:55:00,18.7,-2.7,30.39,NNW,330,2.0,2.0,38,0.00,,,0.00,WeatherCatV1.23B16,2014-02-28 17:55:00,
2014-02-28 13:00:00,18.8,-4.3,30.39,NE,35,0.0,2.0,35,0.00,,,0.00,WeatherCatV1.23B16,2014-02-28 18:00:00,
2014-02-28 13:05:00,19.7,-3.5,30.38,North,352,0.0,2.0,35,0.00,,,0.00,WeatherCatV1.23B16,2014-02-28 18:05:00,
2014-02-28 13:10:00,19.9,-3.3,30.38,NW,306,0.0,3.0,35,0.00,,,0.00,WeatherCatV1.23B16,2014-02-28 18:10:00,
2014-02-28 13:15:00,20.1,-2.5,30.38,WSW,248,1.0,4.0,36,0.00,,,0.00,WeatherCatV1.23B16,2014-02-28 18:15:00,
2014-02-28 13:20:00,19.9,-2.1,30.38,WNW,295,0.0,3.0,37,0.00,,,0.00,WeatherCatV1.23B16,2014-02-28 18:20:00,
2014-02-28 13:25:00,19.8,-3.4,30.38,WSW,256,0.0,3.0,35,0.00,,,0.00,WeatherCatV1.23B16,2014-02-28 18:25:00,
2014-02-28 13:30:00,20.0,-3.2,30.38,West,278,0.0,3.0,35,0.00,,,0.00,WeatherCatV1.23B16,2014-02-28 18:30:00,
2014-02-28 13:35:00,19.8,-2.8,30.38,West,275,2.0,3.0,36,0.00,,,0.00,WeatherCatV1.23B16,2014-02-28 18:35:00,
2014-02-28 13:40:00,19.8,-3.4,30.38,West,266,2.0,2.0,35,0.00,,,0.00,WeatherCatV1.23B16,2014-02-28 18:40:00,
2014-02-28 13:45:00,20.1,-3.7,30.38,WSW,252,0.0,1.0,34,0.00,,,0.00,WeatherCatV1.23B16,2014-02-28 18:45:00,
2014-02-28 13:50:00,20.5,-3.4,30.38,NNW,348,4.0,8.0,34,0.00,,,0.00,WeatherCatV1.23B16,2014-02-28 18:50:00,
2014-02-28 13:55:00,19.8,-2.8,30.38,East,96,1.0,2.0,36,0.00,,,0.00,WeatherCatV1.23B16,2014-02-28 18:55:00,
2014-02-28 14:00:00,19.8,-2.8,30.38,ENE,72,0.0,1.0,36,0.00,,,0.00,WeatherCatV1.23B16,2014-02-28 19:00:00,
2014-02-28 14:05:00,19.8,-4.0,30.38,NNW,348,1.0,6.0,34,0.00,,,0.00,WeatherCatV1.23B16,2014-02-28 19:05:00,
2014-02-28 14:10:00,19.6,-4.2,30.39,NW,314,0.0,3.0,34,0.00,,,0.00,WeatherCatV1.23B16,2014-02-28 19:10:00,
2014-02-28 14:15:00,19.7,-4.1,30.39,ENE,58,2.0,2.0,34,0.00,,,0.00,WeatherCatV1.23B16,2014-02-28 19:15:00,
2014-02-28 14:20:00,19.8,-4.6,30.39,NNW,338,1.0,3.0,33,0.00,,,0.00,WeatherCatV1.23B16,2014-02-28 19:20:00,
2014-02-28 14:25:00,20.0,-3.2,30.39,NE,36,2.0,2.0,35,0.00,,,0.00,WeatherCatV1.23B16,2014-02-28 19:25:00,
2014-02-28 14:30:00,20.1,-3.1,30.39,West,274,0.0,1.0,35,0.00,,,0.00,WeatherCatV1.23B16,2014-02-28 19:30:00,
2014-02-28 14:35:00,19.8,-4.6,30.39,NE,36,2.0,4.0,33,0.00,,,0.00,WeatherCatV1.23B16,2014-02-28 19:35:00,
2014-02-28 14:40:00,19.7,-4.7,30.39,West,278,0.0,2.0,33,0.00,,,0.00,WeatherCatV1.23B16,2014-02-28 19:40:00,
2014-02-28 14:45:00,19.8,-4.6,30.40,ESE,120,0.0,1.0,33,0.00,,,0.00,WeatherCatV1.23B16,2014-02-28 19:45:00,
2014-02-28 14:50:00,19.7,-2.9,30.40,ENE,58,0.0,1.0,36,0.00,,,0.00,WeatherCatV1.23B16,2014-02-28 19:50:00,
2014-02-28 14:55:00,19.6,-4.8,30.40,North,2,1.0,3.0,33,0.00,,,0.00,WeatherCatV1.23B16,2014-02-28 19:55:00,
2014-02-28 15:00:00,20.0,-3.8,30.40,North,356,1.0,1.0,34,0.00,,,0.00,WeatherCatV1.23B16,2014-02-28 20:00:00,
2014-02-28 15:05:00,19.9,-3.9,30.40,NNE,22,0.0,3.0,34,0.00,,,0.00,WeatherCatV1.23B16,2014-02-28 20:05:00,
2014-02-28 15:10:00,19.8,-3.4,30.40,SW,224,0.0,1.0,35,0.00,,,0.00,WeatherCatV1.23B16,2014-02-28 20:10:00,
2014-02-28 15:15:00,20.0,-3.2,30.40,NNE,24,0.0,3.0,35,0.00,,,0.00,WeatherCatV1.23B16,2014-02-28 20:15:00,
2014-02-28 15:20:00,19.7,-4.1,30.41,NNW,330,0.0,2.0,34,0.00,,,0.00,WeatherCatV1.23B16,2014-02-28 20:20:00,
2014-02-28 15:25:00,19.5,-3.7,30.40,NNE,21,0.0,1.0,35,0.00,,,0.00,WeatherCatV1.23B16,2014-02-28 20:25:00,
2014-02-28 15:30:00,19.6,-4.8,30.41,NNW,329,4.0,5.0,33,0.00,,,0.00,WeatherCatV1.23B16,2014-02-28 20:30:00,
2014-02-28 15:35:00,19.8,-2.2,30.41,North,11,0.0,1.0,37,0.00,,,0.00,WeatherCatV1.23B16,2014-02-28 20:35:00,
2014-02-28 15:40:00,19.8,-4.6,30.41,NE,42,1.0,3.0,33,0.00,,,0.00,WeatherCatV1.23B16,2014-02-28 20:40:00,
2014-02-28 15:45:00,19.5,-3.7,30.40,NNE,18,1.0,1.0,35,0.00,,,0.00,WeatherCatV1.23B16,2014-02-28 20:45:00,
2014-02-28 15:50:00,19.4,-4.9,30.40,NNW,337,0.0,2.0,33,0.00,,,0.00,WeatherCatV1.23B16,2014-02-28 20:50:00,
2014-02-28 15:55:00,19.3,-3.8,30.40,NE,51,0.0,4.0,35,0.00,,,0.00,WeatherCatV1.23B16,2014-02-28 20:55:00,
2014-02-28 16:00:00,19.3,-3.8,30.40,West,262,0.0,1.0,35,0.00,,,0.00,WeatherCatV1.23B16,2014-02-28 21:00:00,
2014-02-28 16:05:00,19.4,-3.7,30.40,North,356,2.0,3.0,35,0.00,,,0.00,WeatherCatV1.23B16,2014-02-28 21:05:00,
2014-02-28 16:10:00,19.2,-3.9,30.40,WNW,283,0.0,4.0,35,0.00,,,0.00,WeatherCatV1.23B16,2014-02-28 21:10:00,
2014-02-28 16:15:00,19.3,-3.8,30.40,SSW,200,0.0,2.0,35,0.00,,,0.00,WeatherCatV1.23B16,2014-02-28 21:15:00,
2014-02-28 16:20:00,19.2,-3.3,30.40,NNW,348,0.0,3.0,36,0.00,,,0.00,WeatherCatV1.23B16,2014-02-28 21:20:00,
2014-02-28 16:25:00,19.0,-4.1,30.40,NE,47,0.0,2.0,35,0.00,,,0.00,WeatherCatV1.23B16,2014-02-28 21:25:00,
2014-02-28 16:30:00,19.0,-2.9,30.40,West,279,0.0,0.0,37,0.00,,,0.00,WeatherCatV1.23B16,2014-02-28 21:30:00,
2014-02-28 16:35:00,18.9,-3.6,30.40,WSW,253,0.0,2.0,36,0.00,,,0.00,WeatherCatV1.23B16,2014-02-28 21:35:00,
2014-02-28 16:40:00,18.9,-2.5,30.40,WNW,294,0.0,2.0,38,0.00,,,0.00,WeatherCatV1.23B16,2014-02-28 21:40:00,
2014-02-28 16:45:00,18.7,-2.7,30.40,North,1,0.0,1.0,38,0.00,,,0.00,WeatherCatV1.23B16,2014-02-28 21:45:00,
2014-02-28 16:50:00,18.6,-3.9,30.40,West,272,0.0,1.0,36,0.00,,,0.00,WeatherCatV1.23B16,2014-02-28 21:50:00,
2014-02-28 16:55:00,18.5,-3.4,30.40,West,274,0.0,0.0,37,0.00,,,0.00,WeatherCatV1.23B16,2014-02-28 21:55:00,
2014-02-28 17:00:00,18.4,-4.6,30.40,NNW,330,1.0,2.0,35,0.00,,,0.00,WeatherCatV1.23B16,2014-02-28 22:00:00,
2014-02-28 17:05:00,18.4,-4.0,30.40,NNW,328,0.0,1.0,36,0.00,,,0.00,WeatherCatV1.23B16,2014-02-28 22:05:00,
2014-02-28 17:10:00,18.3,-4.1,30.40,West,275,0.0,1.0,36,0.00,,,0.00,WeatherCatV1.23B16,2014-02-28 22:10:00,
2014-02-28 17:15:00,18.1,-4.3,30.40,West,275,0.0,1.0,36,0.00,,,0.00,WeatherCatV1.23B16,2014-02-28 22:15:00,
2014-02-28 17:20:00,18.0,-3.3,30.40,NNW,340,0.0,1.0,38,0.00,,,0.00,WeatherCatV1.23B16,2014-02-28 22:20:00,
2014-02-28 17:25:00,17.9,-4.5,30.40,NNW,340,0.0,0.0,36,0.00,,,0.00,WeatherCatV1.23B16,2014-02-28 22:25:00,
2014-02-28 17:30:00,17.8,-4.6,30.41,WNW,292,0.0,1.0,36,0.00,,,0.00,WeatherCatV1.23B16,2014-02-28 22:30:00,
2014-02-28 17:35:00,17.7,-4.7,30.41,WNW,292,0.0,0.0,36,0.00,,,0.00,WeatherCatV1.23B16,2014-02-28 22:35:00,
2014-02-28 17:40:00,17.6,-4.2,30.41,WNW,293,0.0,0.0,37,0.00,,,0.00,WeatherCatV1.23B16,2014-02-28 22:40:00,
2014-02-28 17:45:00,17.4,-4.9,30.41,WNW,293,0.0,0.0,36,0.00,,,0.00,WeatherCatV1.23B16,2014-02-28 22:45:00,
2014-02-28 17:50:00,17.1,-3.0,30.41,WNW,293,0.0,0.0,40,0.00,,,0.00,WeatherCatV1.23B16,2014-02-28 22:50:00,
2014-02-28 17:55:00,16.7,-3.9,30.41,WNW,293,0.0,0.0,39,0.00,,,0.00,WeatherCatV1.23B16,2014-02-28 22:55:00,
2014-02-28 18:00:00,16.6,-4.0,30.41,WNW,293,0.0,0.0,39,0.00,,,0.00,WeatherCatV1.23B16,2014-02-28 23:00:00,
2014-02-28 18:05:00,16.3,-3.2,30.41,WNW,293,0.0,0.0,41,0.00,,,0.00,WeatherCatV1.23B16,2014-02-28 23:05:00,
2014-02-28 18:10:00,16.1,-2.4,30.41,WNW,293,0.0,0.0,43,0.00,,,0.00,WeatherCatV1.23B16,2014-02-28 23:10:00,
2014-02-28 18:15:00,15.9,-2.1,30.41,WNW,293,0.0,1.0,44,0.00,,,0.00,WeatherCatV1.23B16,2014-02-28 23:15:00,
2014-02-28 18:20:00,15.8,-0.4,30.41,WNW,293,0.0,0.0,48,0.00,,,0.00,WeatherCatV1.23B16,2014-02-28 23:20:00,
2014-02-28 18:25:00,15.7,-0.9,30.41,WNW,293,0.0,1.0,47,0.00,,,0.00,WeatherCatV1.23B16,2014-02-28 23:25:00,
2014-02-28 18:30:00,15.6,-1.5,30.41,WNW,292,0.0,0.0,46,0.00,,,0.00,WeatherCatV1.23B16,2014-02-28 23:30:00,
2014-02-28 18:33:00,15.4,-2.1,30.42,WNW,293,0.0,0.0,45,0.00,,,0.00,WeatherCatV1.23B16,2014-02-28 23:33:00,
2014-02-28 18:38:00,15.2,-0.9,30.42,WNW,293,0.0,0.0,48,0.00,,,0.00,WeatherCatV1.23B16,2014-02-28 23:38:00,
2014-02-28 18:43:00,15.0,-1.5,30.42,WNW,293,0.0,0.0,47,0.00,,,0.00,WeatherCatV1.23B16,2014-02-28 23:43:00,
2014-02-28 18:48:00,14.8,-1.3,30.43,WNW,293,0.0,0.0,48,0.00,,,0.00,WeatherCatV1.23B16,2014-02-28 23:48:00,
2014-02-28 18:53:00,14.5,-1.1,30.43,WNW,293,0.0,0.0,49,0.00,,,0.00,WeatherCatV1.23B16,2014-02-28 23:53:00,
2014-02-28 18:58:00,14.4,-2.1,30.43,WNW,293,0.0,0.0,47,0.00,,,0.00,WeatherCatV1.23B16,2014-02-28 23:58:00,
2014-02-28 19:03:00,14.3,-2.7,30.42,WNW,293,0.0,0.0,46,0.00,,,0.00,WeatherCatV1.23B16,2014-03-01 00:03:00,
2014-02-28 19:08:00,14.2,-1.9,30.42,WNW,293,0.0,0.0,48,0.00,,,0.00,WeatherCatV1.23B16,2014-03-01 00:08:00,
2014-02-28 19:13:00,14.1,-1.5,30.43,WNW,293,0.0,0.0,49,0.00,,,0.00,WeatherCatV1.23B16,2014-03-01 00:13:00,
2014-02-28 19:18:00,13.9,-1.7,30.43,WNW,293,0.0,0.0,49,0.00,,,0.00,WeatherCatV1.23B16,2014-03-01 00:18:00,
2014-02-28 19:23:00,13.7,-1.0,30.42,WNW,293,0.0,0.0,51,0.00,,,0.00,WeatherCatV1.23B16,2014-03-01 00:23:00,
2014-02-28 19:28:00,13.5,-1.6,30.42,WNW,293,0.0,0.0,50,0.00,,,0.00,WeatherCatV1.23B16,2014-03-01 00:28:00,
2014-02-28 19:33:00,13.4,-2.2,30.42,WNW,293,0.0,1.0,49,0.00,,,0.00,WeatherCatV1.23B16,2014-03-01 00:33:00,
2014-02-28 19:38:00,13.3,-1.8,30.42,WNW,293,0.0,0.0,50,0.00,,,0.00,WeatherCatV1.23B16,2014-03-01 00:38:00,
2014-02-28 19:43:00,13.1,-1.6,30.42,WNW,293,0.0,0.0,51,0.00,,,0.00,WeatherCatV1.23B16,2014-03-01 00:43:00,
2014-02-28 19:48:00,13.0,-1.3,30.42,WNW,293,0.0,0.0,52,0.00,,,0.00,WeatherCatV1.23B16,2014-03-01 00:48:00,
2014-02-28 19:53:00,13.0,-0.5,30.43,WNW,293,0.0,0.0,54,0.00,,,0.00,WeatherCatV1.23B16,2014-03-01 00:53:00,
2014-02-28 19:58:00,12.9,-0.6,30.43,WNW,293,0.0,0.0,54,0.00,,,0.00,WeatherCatV1.23B16,2014-03-01 00:58:00,
2014-02-28 20:03:00,12.7,0.0,30.43,WNW,293,0.0,0.0,56,0.00,,,0.00,WeatherCatV1.23B16,2014-03-01 01:03:00,
2014-02-28 20:08:00,12.6,0.7,30.43,WNW,293,0.0,1.0,58,0.00,,,0.00,WeatherCatV1.23B16,2014-03-01 01:08:00,
2014-02-28 20:13:00,12.4,-1.0,30.43,WNW,293,0.0,0.0,54,0.00,,,0.00,WeatherCatV1.23B16,2014-03-01 01:13:00,
2014-02-28 20:18:00,12.2,-0.5,30.43,WNW,293,0.0,0.0,56,0.00,,,0.00,WeatherCatV1.23B16,2014-03-01 01:18:00,
2014-02-28 20:23:00,12.1,0.2,30.43,WNW,293,0.0,0.0,58,0.00,,,0.00,WeatherCatV1.23B16,2014-03-01 01:23:00,
2014-02-28 20:28:00,11.9,-0.4,30.43,WNW,293,0.0,0.0,57,0.00,,,0.00,WeatherCatV1.23B16,2014-03-01 01:28:00,
2014-02-28 20:33:00,11.7,0.2,30.43,WNW,293,0.0,0.0,59,0.00,,,0.00,WeatherCatV1.23B16,2014-03-01 01:33:00,
2014-02-28 20:38:00,11.5,0.3,30.43,WNW,293,0.0,0.0,60,0.00,,,0.00,WeatherCatV1.23B16,2014-03-01 01:38:00,
2014-02-28 20:43:00,11.5,0.7,30.44,WNW,293,0.0,0.0,61,0.00,,,0.00,WeatherCatV1.23B16,2014-03-01 01:43:00,
2014-02-28 20:48:00,11.4,0.6,30.44,WNW,293,0.0,0.0,61,0.00,,,0.00,WeatherCatV1.23B16,2014-03-01 01:48:00,
2014-02-28 20:53:00,11.3,0.9,30.44,WNW,293,0.0,0.0,62,0.00,,,0.00,WeatherCatV1.23B16,2014-03-01 01:53:00,
2014-02-28 20:58:00,11.3,0.9,30.44,WNW,293,0.0,1.0,62,0.00,,,0.00,WeatherCatV1.23B16,2014-03-01 01:58:00,
2014-02-28 21:03:00,11.1,0.7,30.44,WNW,293,0.0,0.0,62,0.00,,,0.00,WeatherCatV1.23B16,2014-03-01 02:03:00,
2014-02-28 21:08:00,10.9,0.5,30.45,WNW,293,0.0,0.0,62,0.00,,,0.00,WeatherCatV1.23B16,2014-03-01 02:08:00,
2014-02-28 21:13:00,10.7,-0.1,30.45,WNW,293,0.0,1.0,61,0.00,,,0.00,WeatherCatV1.23B16,2014-03-01 02:13:00,
2014-02-28 21:18:00,10.7,0.3,30.45,WNW,293,0.0,1.0,62,0.00,,,0.00,WeatherCatV1.23B16,2014-03-01 02:18:00,
2014-02-28 21:23:00,10.6,-0.2,30.45,WNW,293,0.0,0.0,61,0.00,,,0.00,WeatherCatV1.23B16,2014-03-01 02:23:00,
2014-02-28 21:28:00,10.5,0.1,30.45,WNW,293,0.0,0.0,62,0.00,,,0.00,WeatherCatV1.23B16,2014-03-01 02:28:00,
2014-02-28 21:33:00,10.4,-0.3,30.46,WNW,293,0.0,0.0,61,0.00,,,0.00,WeatherCatV1.23B16,2014-03-01 02:33:00,
2014-02-28 21:38:00,10.3,-0.8,30.46,WNW,293,0.0,0.0,60,0.00,,,0.00,WeatherCatV1.23B16,2014-03-01 02:38:00,
2014-02-28 21:43:00,10.3,-0.8,30.46,WNW,293,0.0,0.0,60,0.00,,,0.00,WeatherCatV1.23B16,2014-03-01 02:43:00,
2014-02-28 21:48:00,10.2,-0.2,30.46,WNW,293,0.0,0.0,62,0.00,,,0.00,WeatherCatV1.23B16,2014-03-01 02:48:00,
2014-02-28 21:53:00,10.1,-0.6,30.46,WNW,293,0.0,0.0,61,0.00,,,0.00,WeatherCatV1.23B16,2014-03-01 02:53:00,
2014-02-28 21:58:00,9.9,-1.2,30.46,WNW,293,0.0,0.0,60,0.00,,,0.00,WeatherCatV1.23B16,2014-03-01 02:58:00,
2014-02-28 22:03:00,10.0,-0.4,30.46,WNW,293,0.0,1.0,62,0.00,,,0.00,WeatherCatV1.23B16,2014-03-01 03:03:00,
2014-02-28 22:08:00,9.9,-0.5,30.46,WNW,293,0.0,1.0,62,0.00,,,0.00,WeatherCatV1.23B16,2014-03-01 03:08:00,
2014-02-28 22:13:00,9.9,-0.1,30.45,WNW,293,0.0,0.0,63,0.00,,,0.00,WeatherCatV1.23B16,2014-03-01 03:13:00,
2014-02-28 22:18:00,9.7,-1.0,30.45,WNW,293,0.0,0.0,61,0.00,,,0.00,WeatherCatV1.23B16,2014-03-01 03:18:00,
2014-02-28 22:23:00,9.6,-0.4,30.45,WNW,293,0.0,0.0,63,0.00,,,0.00,WeatherCatV1.23B16,2014-03-01 03:23:00,
2014-02-28 22:28:00,9.6,-0.1,30.46,WNW,293,0.0,0.0,64,0.00,,,0.00,WeatherCatV1.23B16,2014-03-01 03:28:00,
2014-02-28 22:33:00,9.5,-0.2,30.46,WNW,293,0.0,0.0,64,0.00,,,0.00,WeatherCatV1.23B16,2014-03-01 03:33:00,
2014-02-28 22:38:00,9.4,0.1,30.46,WNW,293,0.0,0.0,65,0.00,,,0.00,WeatherCatV1.23B16,2014-03-01 03:38:00,
2014-02-28 22:43:00,9.2,0.2,30.46,WNW,293,0.0,0.0,66,0.00,,,0.00,WeatherCatV1.23B16,2014-03-01 03:43:00,
2014-02-28 22:48:00,9.1,0.1,30.46,WNW,293,0.0,0.0,66,0.00,,,0.00,WeatherCatV1.23B16,2014-03-01 03:48:00,
2014-02-28 22:53:00,9.1,-0.2,30.46,WNW,293,0.0,0.0,65,0.00,,,0.00,WeatherCatV1.23B16,2014-03-01 03:53:00,
2014-02-28 22:58:00,8.9,-0.4,30.46,WNW,293,0.0,1.0,65,0.00,,,0.00,WeatherCatV1.23B16,2014-03-01 03:58:00,
2014-02-28 23:03:00,8.9,-0.1,30.46,WNW,293,0.0,0.0,66,0.00,,,0.00,WeatherCatV1.23B16,2014-03-01 04:03:00,
2014-02-28 23:08:00,8.8,-0.5,30.46,WNW,293,0.0,0.0,65,0.00,,,0.00,WeatherCatV1.23B16,2014-03-01 04:08:00,
2014-02-28 23:13:00,8.7,-0.3,30.45,WNW,293,0.0,0.0,66,0.00,,,0.00,WeatherCatV1.23B16,2014-03-01 04:13:00,
2014-02-28 23:18:00,8.4,-1.2,30.45,WNW,293,0.0,0.0,64,0.00,,,0.00,WeatherCatV1.23B16,2014-03-01 04:18:00,
2014-02-28 23:23:00,8.3,-1.0,30.46,WNW,293,0.0,0.0,65,0.00,,,0.00,WeatherCatV1.23B16,2014-03-01 04:23:00,
2014-02-28 23:28:00,8.4,-1.6,30.46,WNW,293,0.0,0.0,63,0.00,,,0.00,WeatherCatV1.23B16,2014-03-01 04:28:00,
2014-02-28 23:33:00,8.4,-0.3,30.46,WNW,293,0.0,1.0,67,0.00,,,0.00,WeatherCatV1.23B16,2014-03-01 04:33:00,
2014-02-28 23:38:00,8.3,-0.1,30.46,WNW,293,0.0,1.0,68,0.00,,,0.00,WeatherCatV1.23B16,2014-03-01 04:38:00,
2014-02-28 23:43:00,8.1,0.1,30.46,WNW,293,0.0,0.0,69,0.00,,,0.00,WeatherCatV1.23B16,2014-03-01 04:43:00,
2014-02-28 23:48:00,8.0,0.3,30.46,WNW,293,0.0,0.0,70,0.00,,,0.00,WeatherCatV1.23B16,2014-03-01 04:48:00,
2014-02-28 23:53:00,7.9,0.2,30.46,WNW,293,0.0,0.0,70,0.00,,,0.00,WeatherCatV1.23B16,2014-03-01 04:53:00,
2014-02-28 23:58:00,7.9,-0.1,30.47,WNW,293,0.0,0.0,69,0.00,,,0.00,WeatherCatV1.23B16,2014-03-01 04:58:00,